createdAt,value
2023-03-23T15:59:14.927Z,101722.06
2023-03-23T16:01:44.494Z,101645.66
2023-03-23T16:04:15.376Z,101521.28
2023-03-23T16:06:44.134Z,101463.44
2023-03-23T16:09:15.935Z,101396.03
2023-03-23T16:11:44.080Z,101280.41
2023-03-23T16:14:12.172Z,101256.81
2023-03-23T16:16:46.666Z,101184.97
2023-03-23T16:19:18.095Z,101128.22
2023-03-23T16:21:45.958Z,101026.91
2023-03-23T16:24:13.664Z,100942.16
2023-03-23T16:26:41.894Z,100852.34
2023-03-23T16:29:28.389Z,100735.44
2023-03-23T16:32:03.547Z,100661.41
2023-03-23T16:34:33.769Z,100613.31
2023-03-23T16:37:01.696Z,100538.47
2023-03-23T16:39:29.472Z,100475.72
2023-03-23T16:41:57.295Z,100383.47
2023-03-23T16:44:25.315Z,100273.88
2023-03-23T16:46:53.114Z,100203.66
2023-03-23T16:49:22.320Z,100086.34
2023-03-23T16:51:50.162Z,100011.47
2023-03-23T16:54:17.987Z,99969.72
2023-03-23T16:56:46.974Z,99951.50
2023-03-23T16:59:15.110Z,99920.34
2023-03-23T17:01:43.285Z,99919.28
2023-03-23T17:04:11.430Z,99909.84
2023-03-23T17:06:40.524Z,99863.78
2023-03-23T17:09:08.478Z,99795.25
2023-03-23T17:11:36.448Z,99780.53
2023-03-23T17:14:04.713Z,99724.50
2023-03-23T17:16:32.843Z,99720.03
2023-03-23T17:19:00.874Z,99696.44
2023-03-23T17:21:28.678Z,99657.31
2023-03-23T17:23:57.768Z,99647.94
2023-03-23T17:26:25.598Z,99594.81
2023-03-23T17:28:53.369Z,99534.47
2023-03-23T17:31:21.246Z,99466.09
2023-03-23T17:33:49.645Z,99410.84
2023-03-23T17:36:17.536Z,99304.41
2023-03-23T17:38:46.081Z,99250.91
2023-03-23T17:41:16.231Z,99131.34
2023-03-23T17:43:44.117Z,99113.66
2023-03-23T17:46:11.997Z,99107.78
2023-03-23T17:48:39.942Z,99092.78
2023-03-23T17:51:08.295Z,99094.34
2023-03-23T17:53:37.021Z,99082.31
2023-03-23T17:56:06.600Z,98948.84
2023-03-23T17:58:36.577Z,98846.88
2023-03-23T18:01:04.828Z,98781.19
2023-03-23T18:03:32.744Z,98739.22
2023-03-23T18:06:01.471Z,98649.28
2023-03-23T18:08:29.880Z,98591.72
2023-03-23T18:10:59.285Z,98500.59
2023-03-23T18:13:28.831Z,98520.22
2023-03-23T18:15:58.444Z,98532.44
2023-03-23T18:18:26.927Z,98515.31
2023-03-23T18:20:58.748Z,98457.66
2023-03-23T18:23:27.262Z,98392.19
2023-03-23T18:25:55.920Z,98400.81
2023-03-23T18:28:25.263Z,98321.06
2023-03-23T18:30:53.244Z,98224.84
2023-03-23T18:33:25.174Z,98152.56
2023-03-23T18:35:58.603Z,98130.03
2023-03-23T18:38:26.995Z,98172.25
2023-03-23T18:40:55.448Z,98124.28
2023-03-23T18:43:23.519Z,98055.59
2023-03-23T18:45:51.806Z,98039.97
2023-03-23T18:48:20.242Z,97995.69
2023-03-23T18:50:50.670Z,97990.31
2023-03-23T18:53:20.070Z,97934.03
2023-03-23T18:55:49.062Z,97911.75
2023-03-23T18:58:18.663Z,97837.91
2023-03-23T19:00:47.430Z,97779.75
2023-03-23T19:03:17.106Z,97749.72
2023-03-23T19:05:45.564Z,97734.91
2023-03-23T19:08:14.923Z,97724.69
2023-03-23T19:10:43.920Z,97705.03
2023-03-23T19:13:11.728Z,97709.19
2023-03-23T19:15:40.252Z,97728.84
2023-03-23T19:18:08.808Z,97778.41
2023-03-23T19:21:10.725Z,97780.06
2023-03-23T19:23:26.446Z,97774.25
2023-03-23T19:25:54.923Z,97765.63
2023-03-23T19:29:05.540Z,97767.56
2023-03-23T19:31:11.035Z,97761.34
2023-03-23T19:33:40.292Z,97763.88
2023-03-23T19:36:12.961Z,97755.41
2023-03-23T19:38:42.460Z,97755.25
2023-03-23T19:41:10.241Z,97809.97
2023-03-23T19:43:38.024Z,97885.59
2023-03-23T19:46:06.229Z,97937.09
2023-03-23T19:51:03.475Z,97999.38
2023-03-23T19:53:32.235Z,98070.75
2023-03-23T19:56:02.914Z,98075.03
2023-03-23T19:58:32.496Z,98103.22
2023-03-23T20:01:02.048Z,98136.22
2023-03-23T20:03:29.764Z,98170.06
2023-03-23T20:06:01.414Z,98204.50
2023-03-23T20:08:29.712Z,98260.31
2023-03-23T20:11:05.644Z,98355.56
2023-03-23T20:13:33.427Z,98448.28
2023-03-23T20:16:01.606Z,98504.41
2023-03-23T20:18:29.955Z,98536.97
2023-03-23T20:21:02.273Z,98570.47
2023-03-23T20:23:30.311Z,98633.25
2023-03-23T20:26:04.837Z,98666.19
2023-03-23T20:28:32.767Z,98700.59
2023-03-23T20:31:20.959Z,98737.50
2023-03-23T20:34:00.875Z,98738.47
2023-03-23T20:36:34.972Z,98712.56
2023-03-23T20:39:03.803Z,98722.16
2023-03-23T20:41:35.907Z,98726.47
2023-03-23T20:44:04.394Z,98732.47
2023-03-23T20:46:32.316Z,98708.25
2023-03-23T20:49:01.019Z,98677.19
2023-03-23T20:51:29.041Z,98668.72
2023-03-23T20:53:56.806Z,98644.63
2023-03-23T20:56:25.556Z,98612.75
2023-03-23T20:58:54.734Z,98606.75
2023-03-23T21:01:22.727Z,98656.72
2023-03-23T21:03:52.150Z,98629.16
2023-03-23T21:06:20.266Z,98671.47
2023-03-23T21:08:48.331Z,98710.06
2023-03-23T21:11:24.068Z,98732.47
2023-03-23T21:13:52.172Z,98768.69
2023-03-23T21:16:21.320Z,98834.13
2023-03-23T21:18:49.285Z,98856.69
2023-03-23T21:21:18.475Z,98867.84
2023-03-23T21:23:52.123Z,98857.41
2023-03-23T21:26:21.766Z,98883.34
2023-03-23T21:28:50.862Z,98887.66
2023-03-23T21:31:23.272Z,98923.88
2023-03-23T21:33:51.341Z,98970.41
2023-03-23T21:36:19.050Z,98978.22
2023-03-23T21:38:50.106Z,98979.06
2023-03-23T21:41:18.239Z,99029.25
2023-03-23T21:43:46.699Z,99075.13
2023-03-23T21:46:18.184Z,99098.19
2023-03-23T21:48:50.996Z,99107.69
2023-03-23T21:51:21.971Z,99084.25
2023-03-23T21:53:51.251Z,99091.31
2023-03-23T21:56:19.232Z,99098.19
2023-03-23T21:58:47.045Z,99084.47
2023-03-23T22:01:14.958Z,99080.28
2023-03-23T22:03:42.896Z,99081.13
2023-03-23T22:06:14.971Z,99038.75
2023-03-23T22:08:44.956Z,99043.19
2023-03-23T22:11:14.774Z,99024.94
2023-03-23T22:13:43.175Z,98984.34
2023-03-23T22:16:13.396Z,98951.72
2023-03-23T22:18:43.299Z,98946.44
2023-03-23T22:21:13.691Z,98899.06
2023-03-23T22:23:42.382Z,98894.25
2023-03-23T22:26:10.822Z,98901.56
2023-03-23T22:28:40.983Z,98906.84
2023-03-23T22:31:13.197Z,98900.72
2023-03-23T22:33:41.155Z,98893.91
2023-03-23T22:36:09.990Z,98842.19
2023-03-23T22:38:41.429Z,98829.34
2023-03-23T22:41:11.119Z,98803.34
2023-03-23T22:43:39.152Z,98792.56
2023-03-23T22:46:07.772Z,98752.41
2023-03-23T22:48:35.807Z,98775.06
2023-03-23T22:51:04.358Z,98782.84
2023-03-23T22:53:32.393Z,98810.16
2023-03-23T22:56:01.740Z,98844.81
2023-03-23T22:58:29.919Z,98867.25
2023-03-23T23:01:00.970Z,98900.84
2023-03-23T23:03:30.248Z,98926.88
2023-03-23T23:05:59.567Z,98934.56
2023-03-23T23:08:30.086Z,98943.19
2023-03-23T23:10:59.711Z,98951.97
2023-03-23T23:13:31.228Z,98924.13
2023-03-23T23:16:02.351Z,98961.31
2023-03-23T23:18:33.204Z,98966.34
2023-03-23T23:21:07.210Z,98991.34
2023-03-23T23:23:36.080Z,99015.69
2023-03-23T23:26:04.301Z,99038.41
2023-03-23T23:28:33.507Z,99052.06
2023-03-23T23:31:01.482Z,99039.09
2023-03-23T23:33:29.712Z,99026.97
2023-03-23T23:35:57.455Z,99052.06
2023-03-23T23:38:25.221Z,99043.44
2023-03-23T23:40:52.935Z,99032.16
2023-03-23T23:43:20.911Z,99007.19
2023-03-23T23:45:50.160Z,99014.16
2023-03-23T23:48:18.788Z,99002.84
2023-03-23T23:50:47.393Z,99002.97
2023-03-23T23:53:16.605Z,98972.59
2023-03-23T23:55:45.349Z,98943.31
2023-03-23T23:58:13.131Z,98993.34
